sensor_id;sensor_type;location;lat;lon;timestamp;temperature;humidity
14154;DHT22;7157;53.144;7.570;2022-10-16T00:01:39;14.13;85.31
14154;DHT22;7157;53.144;7.570;2022-10-16T00:11:42;14.12;85.41
14154;DHT22;7157;53.144;7.570;2022-10-16T00:21:46;13.92;85.79
14154;DHT22;7157;53.144;7.570;2022-10-16T00:31:49;13.88;86.00
14154;DHT22;7157;53.144;7.570;2022-10-16T00:41:53;13.76;86.42
14154;DHT22;7157;53.144;7.570;2022-10-16T00:51:56;13.64;86.90
14154;DHT22;7157;53.144;7.570;2022-10-16T01:02:00;13.64;87.03
14154;DHT22;7157;53.144;7.570;2022-10-16T01:12:10;13.75;86.60
14154;DHT22;7157;53.144;7.570;2022-10-16T01:22:15;13.65;86.98
14154;DHT22;7157;53.144;7.570;2022-10-16T01:32:24;13.51;87.38
14154;DHT22;7157;53.144;7.570;2022-10-16T01:42:31;13.41;87.75
14154;DHT22;7157;53.144;7.570;2022-10-16T01:52:40;13.54;87.17
14154;DHT22;7157;53.144;7.570;2022-10-16T02:02:47;13.50;87.38
14154;DHT22;7157;53.144;7.570;2022-10-16T02:12:57;13.49;87.29
14154;DHT22;7157;53.144;7.570;2022-10-16T02:23:01;13.51;87.14
14154;DHT22;7157;53.144;7.570;2022-10-16T02:33:09;13.52;87.01
14154;DHT22;7157;53.144;7.570;2022-10-16T02:43:13;13.48;87.12
14154;DHT22;7157;53.144;7.570;2022-10-16T02:53:17;13.71;86.28
14154;DHT22;7157;53.144;7.570;2022-10-16T03:03:19;13.85;85.40
14154;DHT22;7157;53.144;7.570;2022-10-16T03:13:23;13.97;85.13
14154;DHT22;7157;53.144;7.570;2022-10-16T03:23:26;13.94;85.26
14154;DHT22;7157;53.144;7.570;2022-10-16T03:33:30;14.09;84.79
14154;DHT22;7157;53.144;7.570;2022-10-16T03:43:33;14.13;84.64
14154;DHT22;7157;53.144;7.570;2022-10-16T03:53:37;14.06;84.91
14154;DHT22;7157;53.144;7.570;2022-10-16T04:03:40;14.14;84.86
14154;DHT22;7157;53.144;7.570;2022-10-16T04:13:44;14.09;85.46
14154;DHT22;7157;53.144;7.570;2022-10-16T04:23:46;14.01;86.00
14154;DHT22;7157;53.144;7.570;2022-10-16T04:33:50;13.82;87.15
14154;DHT22;7157;53.144;7.570;2022-10-16T04:43:53;13.63;88.96
14154;DHT22;7157;53.144;7.570;2022-10-16T04:53:57;13.78;88.54
14154;DHT22;7157;53.144;7.570;2022-10-16T05:04:00;13.79;88.35
14154;DHT22;7157;53.144;7.570;2022-10-16T05:14:04;13.77;88.70
14154;DHT22;7157;53.144;7.570;2022-10-16T05:24:06;13.80;88.85
14154;DHT22;7157;53.144;7.570;2022-10-16T05:34:11;13.67;89.70
14154;DHT22;7157;53.144;7.570;2022-10-16T05:44:14;13.88;89.03
14154;DHT22;7157;53.144;7.570;2022-10-16T05:54:18;13.80;89.18
14154;DHT22;7157;53.144;7.570;2022-10-16T06:04:21;13.85;89.28
14154;DHT22;7157;53.144;7.570;2022-10-16T06:14:25;13.79;89.89
14154;DHT22;7157;53.144;7.570;2022-10-16T06:24:28;13.80;90.17
14154;DHT22;7157;53.144;7.570;2022-10-16T06:34:32;13.85;90.21
14154;DHT22;7157;53.144;7.570;2022-10-16T06:44:35;13.92;90.15
14154;DHT22;7157;53.144;7.570;2022-10-16T06:54:39;14.07;89.93
14154;DHT22;7157;53.144;7.570;2022-10-16T07:04:43;14.12;90.00
14154;DHT22;7157;53.144;7.570;2022-10-16T07:14:47;14.33;89.30
14154;DHT22;7157;53.144;7.570;2022-10-16T07:24:49;14.37;88.99
14154;DHT22;7157;53.144;7.570;2022-10-16T07:34:54;14.69;88.12
14154;DHT22;7157;53.144;7.570;2022-10-16T07:44:57;14.88;86.49
14154;DHT22;7157;53.144;7.570;2022-10-16T07:55:01;15.00;86.22
14154;DHT22;7157;53.144;7.570;2022-10-16T08:05:05;15.17;85.50
14154;DHT22;7157;53.144;7.570;2022-10-16T08:15:10;15.39;84.54
14154;DHT22;7157;53.144;7.570;2022-10-16T08:25:13;15.67;83.97
14154;DHT22;7157;53.144;7.570;2022-10-16T08:35:17;15.77;82.84
14154;DHT22;7157;53.144;7.570;2022-10-16T08:45:38;15.93;81.69
14154;DHT22;7157;53.144;7.570;2022-10-16T08:55:48;15.75;82.49
14154;DHT22;7157;53.144;7.570;2022-10-16T09:06:10;16.30;80.70
14154;DHT22;7157;53.144;7.570;2022-10-16T09:16:19;16.95;77.60
14154;DHT22;7157;53.144;7.570;2022-10-16T09:26:23;16.89;77.02
14154;DHT22;7157;53.144;7.570;2022-10-16T09:36:29;17.32;73.90
14154;DHT22;7157;53.144;7.570;2022-10-16T09:46:36;17.54;73.34
14154;DHT22;7157;53.144;7.570;2022-10-16T09:56:40;17.06;75.19
14154;DHT22;7157;53.144;7.570;2022-10-16T10:06:45;17.30;74.83
14154;DHT22;7157;53.144;7.570;2022-10-16T10:16:51;17.72;72.09
14154;DHT22;7157;53.144;7.570;2022-10-16T10:26:59;18.04;71.74
14154;DHT22;7157;53.144;7.570;2022-10-16T10:37:16;18.59;68.01
14154;DHT22;7157;53.144;7.570;2022-10-16T10:47:29;18.81;62.50
14154;DHT22;7157;53.144;7.570;2022-10-16T10:57:40;19.26;63.03
14154;DHT22;7157;53.144;7.570;2022-10-16T11:07:50;24.50;50.49
14154;DHT22;7157;53.144;7.570;2022-10-16T11:17:59;26.84;39.27
14154;DHT22;7157;53.144;7.570;2022-10-16T11:28:11;32.37;30.91
14154;DHT22;7157;53.144;7.570;2022-10-16T11:38:22;29.47;32.03
14154;DHT22;7157;53.144;7.570;2022-10-16T11:48:33;25.35;37.65
14154;DHT22;7157;53.144;7.570;2022-10-16T11:58:45;26.63;34.87
14154;DHT22;7157;53.144;7.570;2022-10-16T12:08:52;22.90;43.16
14154;DHT22;7157;53.144;7.570;2022-10-16T12:19:14;28.06;33.77
14154;DHT22;7157;53.144;7.570;2022-10-16T12:29:26;27.65;32.56
14154;DHT22;7157;53.144;7.570;2022-10-16T12:39:32;23.54;40.91
14154;DHT22;7157;53.144;7.570;2022-10-16T12:49:37;21.70;46.65
14154;DHT22;7157;53.144;7.570;2022-10-16T12:59:46;20.41;49.37
14154;DHT22;7157;53.144;7.570;2022-10-16T13:10:01;20.58;49.85
14154;DHT22;7157;53.144;7.570;2022-10-16T13:20:15;20.84;49.77
14154;DHT22;7157;53.144;7.570;2022-10-16T13:30:22;20.42;50.28
14154;DHT22;7157;53.144;7.570;2022-10-16T13:40:32;22.28;45.25
14154;DHT22;7157;53.144;7.570;2022-10-16T13:50:36;21.52;48.24
14154;DHT22;7157;53.144;7.570;2022-10-16T14:00:40;19.77;52.48
14154;DHT22;7157;53.144;7.570;2022-10-16T14:10:47;19.05;55.23
14154;DHT22;7157;53.144;7.570;2022-10-16T14:20:52;19.07;56.19
14154;DHT22;7157;53.144;7.570;2022-10-16T14:31:00;19.26;55.59
14154;DHT22;7157;53.144;7.570;2022-10-16T14:41:05;18.98;56.10
14154;DHT22;7157;53.144;7.570;2022-10-16T14:51:13;18.81;56.52
14154;DHT22;7157;53.144;7.570;2022-10-16T15:01:17;18.65;56.16
14154;DHT22;7157;53.144;7.570;2022-10-16T15:11:20;18.46;57.16
14154;DHT22;7157;53.144;7.570;2022-10-16T15:21:28;18.35;58.64
14154;DHT22;7157;53.144;7.570;2022-10-16T15:31:31;18.24;60.00
14154;DHT22;7157;53.144;7.570;2022-10-16T15:41:35;17.97;61.68
14154;DHT22;7157;53.144;7.570;2022-10-16T15:51:39;17.70;63.10
14154;DHT22;7157;53.144;7.570;2022-10-16T16:01:43;17.43;64.60
14154;DHT22;7157;53.144;7.570;2022-10-16T16:11:46;17.08;66.56
14154;DHT22;7157;53.144;7.570;2022-10-16T16:21:50;16.84;68.39
14154;DHT22;7157;53.144;7.570;2022-10-16T16:31:53;16.57;69.61
14154;DHT22;7157;53.144;7.570;2022-10-16T16:41:59;16.28;71.13
14154;DHT22;7157;53.144;7.570;2022-10-16T16:52:04;16.06;72.06
14154;DHT22;7157;53.144;7.570;2022-10-16T17:02:09;15.57;73.49
14154;DHT22;7157;53.144;7.570;2022-10-16T17:12:11;15.34;74.84
14154;DHT22;7157;53.144;7.570;2022-10-16T17:22:16;15.31;75.30
14154;DHT22;7157;53.144;7.570;2022-10-16T17:32:18;15.19;75.76
14154;DHT22;7157;53.144;7.570;2022-10-16T17:42:23;14.72;77.02
14154;DHT22;7157;53.144;7.570;2022-10-16T17:52:26;14.33;78.31
14154;DHT22;7157;53.144;7.570;2022-10-16T18:02:31;14.12;78.73
14154;DHT22;7157;53.144;7.570;2022-10-16T18:12:34;13.88;80.43
14154;DHT22;7157;53.144;7.570;2022-10-16T18:22:38;13.88;80.01
14154;DHT22;7157;53.144;7.570;2022-10-16T18:32:41;14.01;79.82
14154;DHT22;7157;53.144;7.570;2022-10-16T18:42:45;13.92;80.21
14154;DHT22;7157;53.144;7.570;2022-10-16T18:52:48;13.88;80.31
14154;DHT22;7157;53.144;7.570;2022-10-16T19:02:52;13.70;80.75
14154;DHT22;7157;53.144;7.570;2022-10-16T19:12:54;13.66;80.86
14154;DHT22;7157;53.144;7.570;2022-10-16T19:22:58;13.60;81.04
14154;DHT22;7157;53.144;7.570;2022-10-16T19:33:01;13.45;81.44
14154;DHT22;7157;53.144;7.570;2022-10-16T19:43:05;13.34;82.09
14154;DHT22;7157;53.144;7.570;2022-10-16T19:53:08;13.31;82.36
14154;DHT22;7157;53.144;7.570;2022-10-16T20:03:12;13.34;82.49
14154;DHT22;7157;53.144;7.570;2022-10-16T20:13:14;13.34;82.68
14154;DHT22;7157;53.144;7.570;2022-10-16T20:23:19;13.37;82.52
14154;DHT22;7157;53.144;7.570;2022-10-16T20:33:21;13.36;82.81
14154;DHT22;7157;53.144;7.570;2022-10-16T20:43:25;13.40;82.90
14154;DHT22;7157;53.144;7.570;2022-10-16T20:53:28;13.46;82.92
14154;DHT22;7157;53.144;7.570;2022-10-16T21:03:32;13.45;83.16
14154;DHT22;7157;53.144;7.570;2022-10-16T21:13:35;13.51;83.54
14154;DHT22;7157;53.144;7.570;2022-10-16T21:23:39;13.61;83.46
14154;DHT22;7157;53.144;7.570;2022-10-16T21:33:42;13.71;83.46
14154;DHT22;7157;53.144;7.570;2022-10-16T21:43:46;13.73;83.93
14154;DHT22;7157;53.144;7.570;2022-10-16T21:53:49;13.77;84.08
14154;DHT22;7157;53.144;7.570;2022-10-16T22:03:54;13.83;84.35
14154;DHT22;7157;53.144;7.570;2022-10-16T22:13:56;13.91;84.84
14154;DHT22;7157;53.144;7.570;2022-10-16T22:24:00;13.91;85.39
14154;DHT22;7157;53.144;7.570;2022-10-16T22:34:03;13.85;86.13
14154;DHT22;7157;53.144;7.570;2022-10-16T22:44:11;13.85;86.80
14154;DHT22;7157;53.144;7.570;2022-10-16T22:54:14;13.91;86.94
14154;DHT22;7157;53.144;7.570;2022-10-16T23:04:18;13.86;86.96
14154;DHT22;7157;53.144;7.570;2022-10-16T23:14:20;13.79;87.03
14154;DHT22;7157;53.144;7.570;2022-10-16T23:24:24;13.69;86.85
14154;DHT22;7157;53.144;7.570;2022-10-16T23:34:27;13.52;87.03
14154;DHT22;7157;53.144;7.570;2022-10-16T23:44:31;13.49;86.88
14154;DHT22;7157;53.144;7.570;2022-10-16T23:54:34;13.52;87.22
